Time;durP1;ratioP1;P1;durP2;ratioP2;P2;SDS_P1;SDS_P2;PMS_P1;PMS_P2;Temp;Humidity;BMP_temperature;BMP_pressure;BME280_temperature;BME280_humidity;BME280_pressure;Samples;Min_cycle;Max_cycle;Signal;HPM_P1;HPM_P2
2022/08/28 00:01:14;;;;;;;7.60;2.00;;;18.70;41.70;;;;;;5060916;28;20472;-84
2022/08/28 00:03:42;;;;;;;6.50;1.87;;;18.80;41.80;;;;;;5060353;28;20454;-84
2022/08/28 00:06:10;;;;;;;11.07;1.77;;;18.60;42.10;;;;;;5060456;28;20448;-85
2022/08/28 00:08:38;;;;;;;8.80;1.87;;;18.70;42.30;;;;;;5061462;28;20459;-84
2022/08/28 00:11:05;;;;;;;8.00;2.00;;;18.60;42.40;;;;;;5061717;28;20902;-85
2022/08/28 00:13:32;;;;;;;10.03;2.37;;;18.60;42.60;;;;;;5060267;28;20452;-88
2022/08/28 00:16:00;;;;;;;9.43;2.07;;;18.60;42.60;;;;;;5061145;28;20937;-86
2022/08/28 00:18:28;;;;;;;9.40;2.10;;;18.50;42.40;;;;;;5061597;28;20593;-84
2022/08/28 00:20:55;;;;;;;7.77;1.60;;;18.50;42.90;;;;;;5061945;28;20464;-84
2022/08/28 00:23:24;;;;;;;8.30;1.90;;;18.50;43.00;;;;;;5060480;28;20513;-84
2022/08/28 00:25:52;;;;;;;14.43;2.20;;;18.40;42.90;;;;;;5061503;28;20455;-84
2022/08/28 00:28:19;;;;;;;8.73;2.00;;;18.40;42.90;;;;;;5061518;28;20462;-84
2022/08/28 00:30:48;;;;;;;6.00;1.77;;;18.40;42.90;;;;;;5059453;28;21223;-83
2022/08/28 00:33:17;;;;;;;7.93;1.63;;;18.40;42.90;;;;;;5060646;28;20454;-84
2022/08/28 00:35:44;;;;;;;9.30;1.63;;;18.30;42.80;;;;;;5060529;28;20477;-84
2022/08/28 00:38:12;;;;;;;6.00;1.40;;;18.30;42.80;;;;;;5060648;28;20526;-84
2022/08/28 00:40:41;;;;;;;7.00;2.10;;;18.20;43.20;;;;;;5060375;28;20453;-84
2022/08/28 00:43:10;;;;;;;9.20;2.20;;;18.10;43.80;;;;;;5060507;28;20454;-83
2022/08/28 00:45:37;;;;;;;7.47;2.37;;;18.20;44.20;;;;;;5059894;28;20458;-84
2022/08/28 00:48:04;;;;;;;10.03;1.87;;;18.10;44.20;;;;;;5059996;28;20458;-84
2022/08/28 00:52:04;;;;;;;11.27;2.40;;;18.20;44.20;;;;;;5058326;28;20458;-84
2022/08/28 00:53:21;;;;;;;6.67;1.90;;;18.10;44.50;;;;;;5058070;28;20516;-84
2022/08/28 00:55:48;;;;;;;9.93;1.67;;;18.10;44.40;;;;;;5060281;28;20495;-84
2022/08/28 00:58:18;;;;;;;8.07;2.03;;;18.10;44.40;;;;;;5059814;28;20542;-84
2022/08/28 01:00:45;;;;;;;8.70;1.90;;;18.10;44.70;;;;;;5059329;28;20546;-84
2022/08/28 01:03:12;;;;;;;11.47;2.20;;;18.00;44.80;;;;;;5057821;28;20459;-84
2022/08/28 01:05:45;;;;;;;5.67;2.00;;;18.00;45.00;;;;;;5058556;28;20452;-84
2022/08/28 01:08:12;;;;;;;5.87;1.80;;;17.90;44.90;;;;;;5059151;28;20461;-84
2022/08/28 01:10:42;;;;;;;6.47;1.77;;;18.00;45.20;;;;;;5059681;28;20608;-83
2022/08/28 01:13:09;;;;;;;5.80;1.43;;;18.00;45.30;;;;;;5060275;28;20949;-84
2022/08/28 01:15:41;;;;;;;14.80;2.70;;;18.00;45.50;;;;;;5059809;28;20475;-85
2022/08/28 01:18:10;;;;;;;8.50;2.23;;;17.80;45.50;;;;;;5059755;28;20957;-84
2022/08/28 01:20:45;;;;;;;8.13;1.90;;;17.90;46.00;;;;;;5059945;28;20483;-84
2022/08/28 01:23:20;;;;;;;7.37;2.33;;;17.90;46.90;;;;;;5059657;28;20458;-84
2022/08/28 01:25:48;;;;;;;7.07;1.90;;;17.90;46.00;;;;;;5059772;28;20451;-84
2022/08/28 01:28:15;;;;;;;11.57;2.47;;;17.80;45.50;;;;;;5059927;28;20999;-84
2022/08/28 01:30:45;;;;;;;9.20;2.77;;;17.80;45.50;;;;;;5059395;28;20513;-84
2022/08/28 01:33:13;;;;;;;7.00;2.50;;;17.90;46.10;;;;;;5059733;28;20456;-84
2022/08/28 01:35:44;;;;;;;9.20;2.17;;;17.70;45.90;;;;;;5059822;28;20862;-83
2022/08/28 01:38:11;;;;;;;10.00;2.10;;;17.70;45.80;;;;;;5059536;28;20451;-84
2022/08/28 01:40:41;;;;;;;6.70;2.10;;;17.70;46.20;;;;;;5059817;28;20980;-85
2022/08/28 01:43:13;;;;;;;13.10;2.67;;;17.70;46.70;;;;;;5059379;28;20456;-84
2022/08/28 01:45:41;;;;;;;14.07;2.83;;;17.70;46.90;;;;;;5059185;28;20452;-83
2022/08/28 01:48:09;;;;;;;9.80;2.80;;;17.60;46.70;;;;;;5059061;28;20533;-84
2022/08/28 01:50:35;;;;;;;10.23;2.80;;;17.60;46.80;;;;;;5056745;28;20453;-84
2022/08/28 01:53:04;;;;;;;11.73;2.03;;;17.60;47.10;;;;;;5056317;28;20516;-85
2022/08/28 01:55:34;;;;;;;9.93;2.40;;;17.60;46.60;;;;;;5056478;28;20480;-84
2022/08/28 01:58:04;;;;;;;8.60;2.30;;;17.50;47.90;;;;;;5059334;28;20453;-84
2022/08/28 02:00:32;;;;;;;9.00;3.10;;;17.60;45.30;;;;;;5058733;28;20453;-84
2022/08/28 02:02:59;;;;;;;9.60;3.63;;;17.60;44.10;;;;;;5056587;28;20468;-84
2022/08/28 02:05:29;;;;;;;9.70;2.57;;;17.60;44.10;;;;;;5059268;28;20448;-84
2022/08/28 02:07:56;;;;;;;6.77;2.50;;;17.60;44.00;;;;;;5058883;28;20478;-84
2022/08/28 02:10:24;;;;;;;9.00;3.70;;;17.50;43.60;;;;;;5059941;28;20483;-85
2022/08/28 02:12:52;;;;;;;11.20;3.27;;;17.60;44.50;;;;;;5060160;28;21628;-83
2022/08/28 02:15:19;;;;;;;10.60;3.20;;;17.60;44.10;;;;;;5059388;28;20984;-84
2022/08/28 02:17:50;;;;;;;8.70;2.57;;;17.40;44.10;;;;;;5059567;28;20456;-83
2022/08/28 02:20:17;;;;;;;8.60;2.50;;;17.40;44.50;;;;;;5058283;28;20965;-84
2022/08/28 02:22:44;;;;;;;11.63;3.10;;;17.50;45.70;;;;;;5058998;28;20480;-85
2022/08/28 02:25:12;;;;;;;8.10;2.90;;;17.50;44.80;;;;;;5058044;28;20458;-84
2022/08/28 02:27:40;;;;;;;12.27;3.40;;;17.50;45.20;;;;;;5058260;28;20448;-83
2022/08/28 02:30:10;;;;;;;8.40;3.00;;;17.30;45.40;;;;;;5059570;28;20451;-84
2022/08/28 02:32:37;;;;;;;9.53;2.57;;;17.30;45.90;;;;;;5058804;28;20467;-84
2022/08/28 02:35:07;;;;;;;11.00;3.63;;;17.20;47.20;;;;;;5059756;28;20510;-84
2022/08/28 02:37:34;;;;;;;7.17;2.63;;;17.20;47.30;;;;;;5059990;28;20449;-83
2022/08/28 02:40:02;;;;;;;10.57;2.93;;;17.20;48.30;;;;;;5061401;28;20535;-84
2022/08/28 02:42:28;;;;;;;10.10;2.60;;;17.20;47.30;;;;;;5060765;28;20465;-84
2022/08/28 02:44:55;;;;;;;11.50;3.33;;;17.10;47.40;;;;;;5060879;28;20506;-84
2022/08/28 02:47:22;;;;;;;9.90;3.70;;;17.10;47.70;;;;;;5061480;28;20457;-84
2022/08/28 02:49:49;;;;;;;12.53;3.00;;;17.10;47.20;;;;;;5060717;28;20452;-85
2022/08/28 02:52:18;;;;;;;12.07;2.83;;;17.00;47.20;;;;;;5059037;28;20476;-84
2022/08/28 02:54:46;;;;;;;9.10;2.47;;;17.00;47.70;;;;;;5060357;28;20447;-84
2022/08/28 02:57:13;;;;;;;8.70;2.70;;;16.90;47.90;;;;;;5061149;28;20509;-84
2022/08/28 02:59:40;;;;;;;11.00;3.27;;;16.80;48.80;;;;;;5061090;28;20451;-84
2022/08/28 03:02:07;;;;;;;12.13;3.47;;;16.80;49.00;;;;;;5061253;28;20471;-84
2022/08/28 03:04:34;;;;;;;11.97;3.20;;;16.60;49.90;;;;;;5061277;28;20608;-84
2022/08/28 03:07:01;;;;;;;9.80;3.00;;;16.60;50.10;;;;;;5061582;28;20448;-83
2022/08/28 03:09:30;;;;;;;9.57;3.60;;;16.50;50.00;;;;;;5060663;28;20448;-84
2022/08/28 03:11:59;;;;;;;11.83;4.20;;;16.50;50.00;;;;;;5042021;28;20472;-83
2022/08/28 03:14:26;;;;;;;16.73;4.63;;;16.40;49.90;;;;;;5042692;28;20530;-83
2022/08/28 03:16:53;;;;;;;13.57;3.23;;;16.30;50.70;;;;;;5060898;28;20474;-83
2022/08/28 03:19:20;;;;;;;13.30;4.03;;;16.20;51.60;;;;;;5061822;28;20465;-83
2022/08/28 03:21:46;;;;;;;17.43;3.70;;;16.00;52.20;;;;;;5061559;28;20528;-84
2022/08/28 03:24:12;;;;;;;10.30;3.20;;;15.90;53.40;;;;;;5063759;28;20845;-84
2022/08/28 03:26:40;;;;;;;9.47;3.97;;;15.90;54.20;;;;;;5066415;28;20513;-84
2022/08/28 03:29:07;;;;;;;10.67;3.80;;;15.70;54.60;;;;;;5066708;28;20234;-83
2022/08/28 03:31:35;;;;;;;10.30;4.00;;;15.50;55.20;;;;;;5065840;28;20473;-84
2022/08/28 03:34:03;;;;;;;10.97;4.03;;;15.60;56.80;;;;;;5065485;28;20910;-85
2022/08/28 03:36:30;;;;;;;17.23;5.33;;;15.50;56.70;;;;;;5064608;28;20477;-84
2022/08/28 03:38:59;;;;;;;15.77;3.60;;;15.40;57.60;;;;;;5064992;28;20958;-83
2022/08/28 03:41:28;;;;;;;8.90;3.70;;;15.40;57.60;;;;;;5065629;28;20535;-86
2022/08/28 03:43:58;;;;;;;8.50;3.53;;;15.30;57.50;;;;;;5065437;28;20445;-86
2022/08/28 03:46:27;;;;;;;10.67;3.60;;;15.20;58.30;;;;;;5064854;28;20436;-84
2022/08/28 03:48:54;;;;;;;11.17;4.30;;;15.10;59.60;;;;;;5065447;28;20866;-84
2022/08/28 03:51:24;;;;;;;10.97;4.67;;;15.00;60.50;;;;;;5065488;28;20463;-83
2022/08/28 03:53:52;;;;;;;11.03;4.00;;;15.00;61.00;;;;;;5063978;28;20445;-84
2022/08/28 03:56:21;;;;;;;16.80;4.53;;;14.90;61.50;;;;;;5063199;28;20467;-84
2022/08/28 03:58:50;;;;;;;10.07;4.10;;;14.80;62.20;;;;;;5062752;28;20964;-84
2022/08/28 04:01:18;;;;;;;12.17;3.97;;;14.70;63.10;;;;;;5063676;28;20493;-84
2022/08/28 04:03:45;;;;;;;12.77;4.10;;;14.80;64.40;;;;;;5062726;28;20455;-84
2022/08/28 04:06:13;;;;;;;12.20;4.63;;;14.80;66.10;;;;;;5055769;28;20979;-84
2022/08/28 04:08:40;;;;;;;9.13;4.60;;;14.60;65.20;;;;;;5057258;28;20447;-84
2022/08/28 04:11:07;;;;;;;14.07;4.80;;;14.50;65.10;;;;;;5061988;28;20566;-84
2022/08/28 04:13:34;;;;;;;15.20;4.53;;;14.40;65.70;;;;;;5063339;28;20463;-84
2022/08/28 04:16:03;;;;;;;15.17;4.23;;;14.40;67.50;;;;;;5062644;28;20472;-84
2022/08/28 04:18:31;;;;;;;9.00;3.87;;;14.30;68.60;;;;;;5062895;28;20487;-86
2022/08/28 04:20:59;;;;;;;13.07;5.67;;;14.00;69.80;;;;;;5061727;28;20460;-85
2022/08/28 04:23:26;;;;;;;11.00;4.90;;;13.80;71.40;;;;;;5063562;28;20509;-86
2022/08/28 04:25:53;;;;;;;12.90;4.83;;;13.80;72.60;;;;;;5062343;28;20454;-84
2022/08/28 04:28:21;;;;;;;9.93;4.87;;;13.80;74.00;;;;;;5063476;28;20521;-84
2022/08/28 04:30:49;;;;;;;21.30;3.93;;;13.90;73.90;;;;;;5062968;28;20538;-83
2022/08/28 04:33:15;;;;;;;18.30;4.10;;;14.00;73.80;;;;;;5063779;28;20463;-84
2022/08/28 04:38:35;;;;;;;10.80;4.73;;;14.00;73.60;;;;;;5055899;28;20463;-77
2022/08/28 04:41:04;;;;;;;8.60;3.97;;;14.10;73.50;;;;;;5058472;28;20463;-80
2022/08/28 04:43:30;;;;;;;13.93;4.37;;;14.20;72.90;;;;;;5058409;28;20447;-80
2022/08/28 04:46:03;;;;;;;13.57;3.57;;;14.30;72.60;;;;;;5057558;28;20447;-83
2022/08/28 04:48:29;;;;;;;10.60;4.00;;;14.30;72.40;;;;;;5062338;28;20486;-83
2022/08/28 04:50:57;;;;;;;14.80;4.10;;;14.30;72.00;;;;;;5062106;28;20448;-82
2022/08/28 04:53:24;;;;;;;14.03;4.67;;;14.30;71.60;;;;;;5064028;28;20959;-83
2022/08/28 04:55:52;;;;;;;13.60;4.60;;;14.40;71.70;;;;;;5059877;28;20479;-82
2022/08/28 04:58:20;;;;;;;17.20;5.83;;;14.40;71.50;;;;;;5040954;28;20479;-83
2022/08/28 05:00:49;;;;;;;6.40;3.80;;;14.40;71.30;;;;;;5051258;28;20526;-83
2022/08/28 05:03:17;;;;;;;18.87;4.70;;;14.40;71.20;;;;;;5055062;28;20459;-78
2022/08/28 05:05:45;;;;;;;16.53;5.13;;;14.40;71.30;;;;;;5053794;28;20451;-79
2022/08/28 05:08:14;;;;;;;11.80;5.07;;;14.40;71.40;;;;;;5036080;28;20449;-78
2022/08/28 05:10:45;;;;;;;11.03;5.00;;;14.30;71.50;;;;;;5049374;28;20458;-78
2022/08/28 05:13:14;;;;;;;14.93;4.70;;;14.30;72.00;;;;;;5053226;28;20998;-78
2022/08/28 05:15:41;;;;;;;17.00;5.20;;;14.30;72.90;;;;;;5052086;28;20886;-78
2022/08/28 05:18:08;;;;;;;15.23;4.93;;;14.30;73.00;;;;;;5052936;28;20458;-78
2022/08/28 05:20:36;;;;;;;8.97;3.87;;;14.30;73.00;;;;;;5053271;28;20458;-78
2022/08/28 05:23:04;;;;;;;13.53;5.60;;;14.30;73.00;;;;;;5052948;28;20881;-78
2022/08/28 05:25:35;;;;;;;19.70;4.13;;;14.30;73.00;;;;;;5052761;28;20451;-78
2022/08/28 05:28:02;;;;;;;20.37;4.57;;;14.40;73.10;;;;;;5053617;28;20456;-78
2022/08/28 05:30:29;;;;;;;14.50;5.30;;;14.50;73.20;;;;;;5053131;28;20456;-78
2022/08/28 05:32:56;;;;;;;11.80;4.30;;;14.50;73.20;;;;;;5053109;28;20854;-78
2022/08/28 05:35:23;;;;;;;14.10;4.93;;;14.50;73.20;;;;;;5051342;28;20448;-78
2022/08/28 05:37:51;;;;;;;10.47;4.00;;;14.60;72.20;;;;;;5053815;28;20566;-78
2022/08/28 05:40:19;;;;;;;11.17;4.90;;;14.60;72.20;;;;;;5050871;28;20451;-79
2022/08/28 05:42:47;;;;;;;10.20;4.43;;;14.70;71.80;;;;;;5054021;28;20481;-79
2022/08/28 05:45:14;;;;;;;12.07;4.73;;;14.80;71.80;;;;;;5054650;28;20454;-78
2022/08/28 05:47:41;;;;;;;11.97;3.63;;;14.90;70.60;;;;;;5054832;28;20457;-78
2022/08/28 05:50:11;;;;;;;12.63;3.73;;;15.10;67.20;;;;;;5053441;28;20955;-78
2022/08/28 05:52:38;;;;;;;12.87;4.53;;;15.20;66.00;;;;;;5052732;28;20903;-78
2022/08/28 05:55:06;;;;;;;14.27;3.87;;;15.40;65.90;;;;;;5052632;28;20455;-78
2022/08/28 05:57:33;;;;;;;11.50;4.20;;;15.60;64.50;;;;;;5053705;28;20498;-78
2022/08/28 06:00:01;;;;;;;20.00;4.40;;;15.70;64.10;;;;;;5055365;28;20456;-79
2022/08/28 06:02:28;;;;;;;10.47;3.67;;;15.70;63.00;;;;;;5055380;28;20479;-79
2022/08/28 06:04:56;;;;;;;10.17;2.97;;;15.70;62.10;;;;;;5054895;28;20452;-78
2022/08/28 06:07:23;;;;;;;11.13;3.80;;;15.80;61.30;;;;;;5054985;28;20506;-79
2022/08/28 06:09:50;;;;;;;9.50;4.03;;;15.90;60.30;;;;;;5054626;28;20846;-79
2022/08/28 06:12:17;;;;;;;9.87;2.80;;;16.00;59.90;;;;;;5052402;28;20478;-77
2022/08/28 06:14:44;;;;;;;9.90;2.50;;;16.10;58.80;;;;;;5052971;28;20452;-78
2022/08/28 06:17:13;;;;;;;11.73;3.67;;;16.20;58.40;;;;;;5039206;28;20482;-83
2022/08/28 06:19:40;;;;;;;9.33;2.20;;;16.30;57.60;;;;;;5035591;28;20854;-84
2022/08/28 06:22:08;;;;;;;7.80;3.23;;;16.50;56.60;;;;;;5034249;28;20476;-85
2022/08/28 06:24:35;;;;;;;9.03;2.83;;;16.60;55.80;;;;;;5034043;28;20495;-85
2022/08/28 06:27:02;;;;;;;10.20;2.77;;;16.70;55.40;;;;;;5036690;28;20450;-84
2022/08/28 06:29:30;;;;;;;12.03;3.40;;;16.80;54.70;;;;;;5036714;28;20952;-86
2022/08/28 06:31:59;;;;;;;10.03;3.30;;;16.80;53.40;;;;;;5052085;28;20576;-86
2022/08/28 06:34:28;;;;;;;8.97;2.73;;;17.00;53.40;;;;;;5051716;28;20538;-86
2022/08/28 06:36:55;;;;;;;11.67;3.60;;;16.90;52.10;;;;;;5051775;28;20522;-86
2022/08/28 06:39:23;;;;;;;10.33;3.10;;;17.10;51.10;;;;;;5051553;28;20447;-86
2022/08/28 06:42:05;;;;;;;7.50;2.40;;;17.10;51.10;;;;;;5051642;28;20470;-86
2022/08/28 06:44:32;;;;;;;8.37;3.70;;;17.20;50.60;;;;;;5035961;28;20828;-87
2022/08/28 06:47:09;;;;;;;9.73;3.20;;;17.30;50.50;;;;;;5052298;28;20455;-86
2022/08/28 06:50:01;;;;;;;23.33;3.90;;;17.40;49.10;;;;;;5052751;28;20457;-86
2022/08/28 06:52:27;;;;;;;8.53;2.60;;;17.60;49.00;;;;;;5053855;28;20884;-84
2022/08/28 06:54:54;;;;;;;11.63;3.80;;;17.50;48.40;;;;;;5054185;28;20445;-86
2022/08/28 06:57:25;;;;;;;8.30;2.70;;;17.70;47.30;;;;;;5055986;28;20508;-82
2022/08/28 06:59:55;;;;;;;9.10;2.83;;;17.70;46.80;;;;;;5065783;28;20660;-82
2022/08/28 07:02:22;;;;;;;6.90;2.60;;;17.70;46.40;;;;;;5063973;28;20482;-82
2022/08/28 07:05:07;;;;;;;14.30;2.70;;;18.00;45.80;;;;;;5062802;28;20456;-83
2022/08/28 07:07:37;;;;;;;9.33;2.33;;;17.90;45.40;;;;;;5061637;28;20937;-81
2022/08/28 07:10:05;;;;;;;16.03;3.30;;;17.80;45.00;;;;;;5050645;28;20518;-81
2022/08/28 07:12:37;;;;;;;12.07;2.93;;;18.10;45.40;;;;;;5042973;28;21017;-84
2022/08/28 07:15:12;;;;;;;13.93;2.70;;;18.30;44.10;;;;;;5057592;28;20454;-84
2022/08/28 07:17:39;;;;;;;7.97;3.00;;;18.20;44.00;;;;;;5056847;28;20503;-84
2022/08/28 07:20:23;;;;;;;10.03;2.70;;;18.40;42.90;;;;;;5055774;28;20452;-85
2022/08/28 07:22:53;;;;;;;9.80;3.67;;;18.20;42.90;;;;;;5057790;28;20468;-84
2022/08/28 07:25:20;;;;;;;10.37;3.30;;;18.10;43.40;;;;;;5057301;28;20949;-86
2022/08/28 07:27:50;;;;;;;12.80;3.20;;;18.40;43.60;;;;;;5059928;28;20513;-86
2022/08/28 07:33:28;;;;;;;10.23;3.50;;;18.40;41.70;;;;;;5018217;28;20857;-83
2022/08/28 07:36:12;;;;;;;10.67;3.30;;;18.60;41.60;;;;;;5018923;28;20479;-86
2022/08/28 07:38:52;;;;;;;10.30;2.53;;;18.70;41.80;;;;;;5012607;28;20474;-85
2022/08/28 07:41:45;;;;;;;17.10;2.70;;;18.90;40.80;;;;;;5038598;28;20503;-86
2022/08/28 07:47:18;;;;;;;9.60;2.77;;;18.70;42.10;;;;;;5067908;28;20448;-87
2022/08/28 07:49:52;;;;;;;11.40;2.53;;;18.90;41.20;;;;;;5068604;28;20448;-83
2022/08/28 07:52:20;;;;;;;6.53;2.10;;;18.80;39.00;;;;;;5061268;28;20531;-84
2022/08/28 07:54:58;;;;;;;7.10;2.47;;;18.70;41.20;;;;;;5062308;28;20454;-84
2022/08/28 07:57:31;;;;;;;11.13;2.43;;;18.60;40.70;;;;;;5061729;28;20468;-85
2022/08/28 08:00:12;;;;;;;9.73;2.70;;;18.70;41.90;;;;;;5061764;28;20449;-85
2022/08/28 08:02:40;;;;;;;10.10;2.60;;;18.80;39.30;;;;;;5060503;28;20534;-86
2022/08/28 08:05:15;;;;;;;11.53;3.17;;;19.10;39.40;;;;;;5059398;28;20540;-82
2022/08/28 08:07:53;;;;;;;9.17;2.33;;;19.30;37.20;;;;;;5056587;28;20437;-84
2022/08/28 08:10:20;;;;;;;10.17;3.10;;;19.40;38.20;;;;;;5057775;28;20449;-84
2022/08/28 08:12:47;;;;;;;16.57;4.63;;;19.30;37.20;;;;;;5059484;28;20510;-84
2022/08/28 08:15:14;;;;;;;9.70;2.67;;;19.50;37.70;;;;;;5060592;28;20451;-80
2022/08/28 08:17:40;;;;;;;10.30;2.90;;;19.20;37.20;;;;;;5060649;28;20477;-80
2022/08/28 08:20:09;;;;;;;7.33;2.70;;;19.30;37.50;;;;;;5060819;28;20453;-81
2022/08/28 08:22:36;;;;;;;8.87;2.80;;;19.30;36.40;;;;;;5059682;28;20499;-81
2022/08/28 08:25:05;;;;;;;13.80;3.73;;;19.20;36.60;;;;;;5059936;28;20454;-80
2022/08/28 08:27:32;;;;;;;19.00;4.27;;;19.40;37.60;;;;;;5059333;28;20454;-82
2022/08/28 08:29:59;;;;;;;8.20;2.77;;;19.50;35.80;;;;;;5059635;28;20454;-81
2022/08/28 08:32:26;;;;;;;17.87;2.60;;;19.10;34.40;;;;;;5059363;28;20510;-80
2022/08/28 08:34:55;;;;;;;9.13;3.00;;;19.30;36.90;;;;;;5058314;28;20498;-81
2022/08/28 08:37:22;;;;;;;9.03;2.47;;;19.50;35.90;;;;;;5058462;28;20470;-81
2022/08/28 08:39:52;;;;;;;13.10;3.20;;;19.60;34.10;;;;;;5057742;28;20453;-80
2022/08/28 08:42:24;;;;;;;13.03;2.70;;;20.00;32.60;;;;;;5057950;28;20467;-80
2022/08/28 08:44:53;;;;;;;12.57;2.77;;;20.40;33.40;;;;;;5057398;28;20465;-80
2022/08/28 08:47:31;;;;;;;9.60;2.43;;;20.60;32.40;;;;;;5057551;28;20471;-79
2022/08/28 08:50:02;;;;;;;6.50;2.63;;;20.70;31.00;;;;;;5057482;28;20491;-80
2022/08/28 08:52:38;;;;;;;7.30;2.60;;;20.60;30.90;;;;;;5055657;28;20480;-84
2022/08/28 08:55:37;;;;;;;;;;;;;;;;;;;;;
2022/08/28 08:58:28;;;;;;;12.20;2.80;;;20.80;29.20;;;;;;5052315;28;20525;-86
2022/08/28 09:01:12;;;;;;;10.03;3.00;;;21.50;28.60;;;;;;5061280;28;21041;-83
2022/08/28 09:03:53;;;;;;;8.93;2.00;;;21.30;26.40;;;;;;5059086;28;20441;-84
2022/08/28 09:06:35;;;;;;;10.27;2.67;;;21.40;26.90;;;;;;5057205;28;20823;-81
2022/08/28 09:09:11;;;;;;;8.10;2.30;;;21.60;26.00;;;;;;5059488;28;20447;-87
2022/08/28 09:11:54;;;;;;;12.30;2.77;;;22.30;24.60;;;;;;5051536;28;20473;-84
2022/08/28 09:14:41;;;;;;;11.60;3.13;;;22.10;23.40;;;;;;5035573;28;20462;-85
2022/08/28 09:17:10;;;;;;;10.10;3.20;;;22.00;22.90;;;;;;5042819;28;20440;-84
2022/08/28 09:19:37;;;;;;;8.30;3.00;;;22.90;21.80;;;;;;5036417;28;20464;-85
2022/08/28 09:22:09;;;;;;;9.87;2.73;;;22.90;19.20;;;;;;5052232;28;20478;-84
2022/08/28 09:24:42;;;;;;;10.57;2.70;;;22.50;20.50;;;;;;5049613;28;20439;-84
2022/08/28 09:27:24;;;;;;;12.53;2.80;;;22.40;21.40;;;;;;5056513;28;20960;-82
2022/08/28 09:29:56;;;;;;;10.93;3.03;;;22.40;21.40;;;;;;5055611;28;20454;-84
2022/08/28 09:32:26;;;;;;;11.30;2.57;;;22.90;20.40;;;;;;5056213;28;20479;-80
2022/08/28 09:35:02;;;;;;;10.40;2.97;;;23.00;21.10;;;;;;5055224;28;20475;-83
2022/08/28 09:37:31;;;;;;;8.20;2.47;;;22.80;20.50;;;;;;5057244;28;20501;-81
2022/08/28 09:40:17;;;;;;;10.60;2.90;;;22.30;21.40;;;;;;5060930;28;20443;-81
2022/08/28 09:45:53;;;;;;;11.30;3.37;;;22.10;21.20;;;;;;5057339;28;20439;-83
2022/08/28 09:48:51;;;;;;;8.20;2.27;;;22.40;21.40;;;;;;5060490;28;20447;-86
2022/08/28 09:51:29;;;;;;;11.20;3.07;;;22.90;21.80;;;;;;5053525;28;20464;-85
2022/08/28 09:56:44;;;;;;;10.40;2.72;;;23.00;20.10;;;;;;5050405;28;20467;-86
2022/08/28 09:59:21;;;;;;;11.93;3.03;;;22.70;21.10;;;;;;5052209;28;20263;-86
2022/08/28 10:02:11;;;;;;;12.03;2.23;;;22.70;20.40;;;;;;5052091;28;20474;-86
2022/08/28 10:04:58;;;;;;;8.70;3.23;;;23.10;20.60;;;;;;5051960;28;20533;-87
2022/08/28 10:08:00;;;;;;;12.03;4.80;;;22.80;18.80;;;;;;5048846;28;20455;-87
2022/08/28 10:10:56;;;;;;;11.77;2.60;;;23.70;16.80;;;;;;5040454;28;20501;-87
2022/08/28 10:20:36;;;;;;;13.83;2.47;;;24.60;13.50;;;;;;5006087;28;20452;-87
2022/08/28 10:23:21;;;;;;;8.90;2.67;;;25.30;10.70;;;;;;5037309;28;20979;-88
2022/08/28 10:26:12;;;;;;;6.87;2.10;;;24.50;10.70;;;;;;5052616;28;20538;-87
2022/08/28 10:28:56;;;;;;;9.03;2.30;;;25.00;10.60;;;;;;5051749;28;20470;-88
2022/08/28 10:31:53;;;;;;;8.83;3.17;;;24.40;10.40;;;;;;5052764;28;20512;-87
2022/08/28 10:38:06;;;;;;;7.97;2.67;;;24.80;11.50;;;;;;5052263;28;20447;-87
2022/08/28 10:40:38;;;;;;;9.53;2.60;;;25.70;6.90;;;;;;5051986;28;20451;-87
2022/08/28 10:44:01;;;;;;;11.07;3.07;;;24.70;7.20;;;;;;5052278;28;20510;-88
2022/08/28 10:47:01;;;;;;;7.10;2.50;;;25.60;5.60;;;;;;5052366;28;20447;-87
2022/08/28 10:49:53;;;;;;;6.00;2.30;;;25.90;4.60;;;;;;5030180;28;20456;-85
2022/08/28 10:52:49;;;;;;;8.63;2.03;;;25.70;5.40;;;;;;5038403;28;20467;-88
2022/08/28 10:56:09;;;;;;;;;;;;;;;;;;;;;
2022/08/28 10:59:14;;;;;;;10.17;2.77;;;25.60;1.60;;;;;;5050953;28;20471;-88
2022/08/28 11:13:58;;;;;;;9.80;2.67;;;25.10;3.80;;;;;;5043568;28;20476;-87
2022/08/28 11:16:46;;;;;;;6.87;2.10;;;25.70;2.50;;;;;;5031604;28;20531;-86
2022/08/28 11:36:13;;;;;;;11.37;2.90;;;26.50;1.00;;;;;;4987976;23;20987;-86
2022/08/28 11:39:18;;;;;;;11.03;2.70;;;27.60;1.00;;;;;;5120196;28;20444;-87
2022/08/28 11:42:32;;;;;;;9.77;2.33;;;27.40;1.00;;;;;;5122844;28;20468;-85
2022/08/28 11:45:00;;;;;;;5.80;1.93;;;26.50;1.00;;;;;;5124765;28;20840;-86
2022/08/28 11:47:46;;;;;;;13.23;2.00;;;26.10;1.00;;;;;;5121287;28;20465;-85
2022/08/28 11:50:19;;;;;;;9.50;2.10;;;26.20;1.00;;;;;;5102787;28;20978;-86
2022/08/28 11:53:23;;;;;;;7.80;2.37;;;26.00;1.00;;;;;;5107145;28;20513;-86
2022/08/28 11:56:15;;;;;;;7.30;2.40;;;26.70;1.00;;;;;;5102537;28;20504;-86
2022/08/28 11:59:10;;;;;;;9.67;2.30;;;27.80;1.00;;;;;;5126603;28;20445;-86
2022/08/28 12:01:39;;;;;;;8.73;2.30;;;27.00;1.00;;;;;;5129583;28;20452;-84
2022/08/28 12:04:19;;;;;;;8.77;1.77;;;26.50;1.00;;;;;;5130656;28;20456;-86
2022/08/28 12:07:26;;;;;;;9.87;2.33;;;26.20;1.00;;;;;;5129403;27;20495;-85
2022/08/28 12:09:53;;;;;;;7.07;2.23;;;26.30;1.00;;;;;;5074211;28;20477;-85
2022/08/28 12:12:53;;;;;;;8.70;2.40;;;26.50;1.00;;;;;;5127846;28;20478;-85
2022/08/28 12:15:41;;;;;;;8.40;2.33;;;26.80;1.00;;;;;;5125002;28;20446;-85
2022/08/28 12:18:15;;;;;;;9.37;2.87;;;26.70;1.00;;;;;;5114353;28;20497;-86
2022/08/28 12:20:59;;;;;;;7.63;2.60;;;27.80;1.00;;;;;;5108243;28;20441;-85
2022/08/28 12:23:39;;;;;;;13.70;1.90;;;27.50;1.00;;;;;;5104616;28;20472;-85
2022/08/28 12:26:09;;;;;;;7.50;2.23;;;27.20;1.00;;;;;;5105849;28;20465;-84
2022/08/28 12:28:44;;;;;;;7.40;2.20;;;28.30;1.00;;;;;;5106499;28;20465;-85
2022/08/28 12:34:34;;;;;;;8.60;2.20;;;28.00;1.00;;;;;;5110692;28;20486;-85
2022/08/28 12:37:02;;;;;;;8.03;2.00;;;27.70;1.00;;;;;;5111310;28;21052;-85
2022/08/28 12:39:32;;;;;;;8.27;2.30;;;28.50;1.00;;;;;;5094515;28;20441;-86
2022/08/28 12:42:01;;;;;;;8.70;1.80;;;29.00;1.00;;;;;;5093481;28;20446;-86
2022/08/28 12:44:30;;;;;;;9.40;2.63;;;29.00;1.00;;;;;;5094104;28;20439;-86
2022/08/28 12:46:58;;;;;;;8.30;2.77;;;29.00;1.00;;;;;;5093652;28;20488;-86
2022/08/28 12:49:29;;;;;;;8.97;3.07;;;29.30;1.00;;;;;;5094405;28;20477;-86
2022/08/28 12:52:11;;;;;;;5.67;2.13;;;29.40;1.00;;;;;;5093923;28;20449;-86
2022/08/28 12:54:38;;;;;;;8.50;1.97;;;28.60;1.00;;;;;;5097282;28;20457;-85
2022/08/28 12:57:07;;;;;;;8.97;2.10;;;28.80;1.00;;;;;;5101700;28;20492;-86
2022/08/28 12:59:36;;;;;;;7.43;2.00;;;29.40;1.00;;;;;;5103849;28;20444;-85
2022/08/28 13:02:07;;;;;;;9.60;2.70;;;28.90;1.00;;;;;;5105939;28;20803;-86
2022/08/28 13:04:37;;;;;;;8.23;2.30;;;28.50;1.00;;;;;;5102784;28;20927;-86
2022/08/28 13:07:09;;;;;;;8.13;2.30;;;28.60;1.00;;;;;;5103971;28;20810;-85
2022/08/28 13:09:37;;;;;;;7.70;1.87;;;28.50;1.00;;;;;;5100107;28;20984;-86
2022/08/28 13:12:04;;;;;;;5.10;1.63;;;29.20;1.00;;;;;;5093555;28;20462;-86
2022/08/28 13:14:40;;;;;;;5.70;1.80;;;28.70;1.00;;;;;;5093491;28;20535;-86
2022/08/28 13:17:08;;;;;;;7.50;2.10;;;28.30;1.00;;;;;;5096637;28;20817;-85
2022/08/28 13:19:36;;;;;;;5.73;1.80;;;27.40;1.00;;;;;;5105151;28;20419;-86
2022/08/28 13:22:07;;;;;;;6.93;1.83;;;27.80;1.00;;;;;;5113399;28;21044;-86
2022/08/28 13:24:43;;;;;;;11.00;2.17;;;27.80;1.00;;;;;;5098637;28;20432;-86
2022/08/28 13:27:20;;;;;;;7.00;2.20;;;27.50;1.00;;;;;;5094095;28;20484;-86
2022/08/28 13:30:06;;;;;;;6.37;1.67;;;27.30;1.00;;;;;;5092528;28;20479;-86
2022/08/28 13:32:37;;;;;;;6.40;2.03;;;27.50;1.00;;;;;;5107748;28;20444;-86
2022/08/28 13:35:27;;;;;;;7.83;2.07;;;28.10;1.00;;;;;;5112910;28;20935;-86
2022/08/28 13:37:56;;;;;;;9.70;1.87;;;28.50;1.00;;;;;;5094326;28;20438;-86
2022/08/28 13:40:26;;;;;;;6.73;1.53;;;27.30;1.00;;;;;;5092388;28;20445;-85
2022/08/28 13:42:58;;;;;;;11.13;2.80;;;27.30;1.00;;;;;;5109274;28;20441;-86
2022/08/28 13:45:25;;;;;;;7.83;2.30;;;27.70;1.00;;;;;;5113258;28;20501;-86
2022/08/28 13:47:53;;;;;;;6.10;1.87;;;28.00;1.00;;;;;;5096670;28;20452;-86
2022/08/28 13:50:21;;;;;;;8.17;2.00;;;29.00;1.00;;;;;;5093141;28;20455;-86
2022/08/28 13:52:48;;;;;;;8.07;2.10;;;27.90;1.00;;;;;;5107738;28;20448;-86
2022/08/28 13:55:15;;;;;;;6.93;2.33;;;28.80;1.00;;;;;;5092452;28;20953;-86
2022/08/28 13:57:41;;;;;;;9.80;2.77;;;29.00;1.00;;;;;;5093455;28;20461;-86
2022/08/28 14:00:10;;;;;;;13.87;2.40;;;28.90;1.00;;;;;;5105475;28;20948;-86
2022/08/28 14:05:25;;;;;;;7.43;2.57;;;28.10;1.00;;;;;;5096979;28;20444;-86
2022/08/28 14:07:52;;;;;;;6.60;2.17;;;29.00;1.00;;;;;;5092347;28;20445;-86
2022/08/28 14:10:18;;;;;;;7.33;1.93;;;29.10;1.00;;;;;;5105441;28;20847;-86
2022/08/28 14:12:46;;;;;;;7.50;2.83;;;28.80;1.00;;;;;;5099924;28;20823;-86